createdAt,value
2023-06-11T00:00:33.521Z,19.54
2023-06-11T00:03:00.152Z,19.53
2023-06-11T00:05:29.128Z,19.38
2023-06-11T00:07:57.055Z,19.25
2023-06-11T00:10:24.253Z,19.17
2023-06-11T00:12:50.840Z,19.02
2023-06-11T00:15:17.400Z,18.95
2023-06-11T00:17:44.108Z,18.89
2023-06-11T00:20:12.690Z,18.82
2023-06-11T00:22:40.613Z,18.87
2023-06-11T00:25:11.616Z,18.84
2023-06-11T00:27:38.579Z,18.77
2023-06-11T00:30:07.519Z,18.76
2023-06-11T00:32:36.526Z,18.68
2023-06-11T00:35:08.003Z,18.72
2023-06-11T00:37:35.550Z,18.66
2023-06-11T00:40:02.688Z,18.55
2023-06-11T00:42:29.288Z,18.44
2023-06-11T00:44:55.871Z,18.46
2023-06-11T00:47:22.655Z,18.44
2023-06-11T00:49:49.265Z,18.35
2023-06-11T00:52:16.867Z,18.26
2023-06-11T00:54:43.536Z,18.10
2023-06-11T00:57:10.382Z,18.08
2023-06-11T00:59:39.738Z,18.12
2023-06-11T01:02:22.532Z,18.18
2023-06-11T01:04:58.372Z,18.20
2023-06-11T01:07:31.362Z,18.20
2023-06-11T01:09:59.468Z,18.18
2023-06-11T01:12:26.448Z,18.16
2023-06-11T01:14:53.936Z,18.10
2023-06-11T01:17:30.689Z,18.07
2023-06-11T01:20:15.642Z,17.94
2023-06-11T01:23:15.535Z,17.84
2023-06-11T01:26:16.258Z,17.78
2023-06-11T01:28:47.245Z,17.75
2023-06-11T01:31:16.283Z,17.72
2023-06-11T01:33:44.012Z,17.60
2023-06-11T01:36:12.170Z,17.60
2023-06-11T01:38:46.032Z,17.47
2023-06-11T01:41:13.434Z,17.47
2023-06-11T01:43:40.093Z,17.48
2023-06-11T01:46:06.825Z,17.39
2023-06-11T01:48:33.774Z,17.32
2023-06-11T01:51:00.826Z,17.26
2023-06-11T01:53:27.630Z,17.19
2023-06-11T01:55:56.181Z,17.16
2023-06-11T01:58:23.001Z,17.18
2023-06-11T02:00:49.597Z,17.21
2023-06-11T02:03:17.041Z,17.19
2023-06-11T02:05:44.438Z,17.13
2023-06-11T02:08:11.503Z,17.05
2023-06-11T02:10:38.220Z,17.07
2023-06-11T02:13:04.727Z,17.03
2023-06-11T02:15:31.205Z,16.93
2023-06-11T02:17:57.844Z,16.90
2023-06-11T02:20:24.483Z,16.93
2023-06-11T02:22:51.060Z,16.96
2023-06-11T02:25:17.626Z,16.98
2023-06-11T02:27:44.317Z,17.05
2023-06-11T02:30:11.508Z,16.95
2023-06-11T02:32:38.235Z,16.82
2023-06-11T02:35:05.119Z,16.79
2023-06-11T02:37:31.630Z,16.78
2023-06-11T02:39:58.133Z,16.79
2023-06-11T02:42:24.955Z,16.80
2023-06-11T02:44:51.449Z,16.79
2023-06-11T02:47:18.048Z,16.72
2023-06-11T02:49:44.741Z,16.60
2023-06-11T02:52:11.303Z,16.67
2023-06-11T02:54:37.808Z,16.61
2023-06-11T02:57:04.693Z,16.51
2023-06-11T02:59:31.232Z,16.39
2023-06-11T03:01:57.913Z,16.43
2023-06-11T03:04:24.542Z,16.34
2023-06-11T03:06:51.167Z,16.41
2023-06-11T03:09:17.971Z,16.49
2023-06-11T03:11:44.644Z,16.53
2023-06-11T03:14:11.179Z,16.53
2023-06-11T03:16:37.812Z,16.56
2023-06-11T03:19:04.396Z,16.55
2023-06-11T03:21:30.982Z,16.59
2023-06-11T03:23:57.757Z,16.60
2023-06-11T03:26:25.552Z,16.54
2023-06-11T03:28:52.154Z,16.64
2023-06-11T03:31:18.878Z,16.70
2023-06-11T03:33:45.460Z,16.65
2023-06-11T03:36:11.953Z,16.60
2023-06-11T03:38:38.473Z,16.70
2023-06-11T03:41:05.307Z,16.67
2023-06-11T03:43:32.006Z,16.63
2023-06-11T03:45:58.595Z,16.62
2023-06-11T03:48:25.280Z,16.63
2023-06-11T03:50:51.830Z,16.70
2023-06-11T03:53:19.490Z,16.72
2023-06-11T03:55:46.146Z,16.74
2023-06-11T03:58:12.737Z,16.79
2023-06-11T04:00:39.246Z,16.84
2023-06-11T04:03:05.997Z,16.93
2023-06-11T04:05:38.346Z,16.95
2023-06-11T04:08:05.622Z,16.92
2023-06-11T04:10:32.986Z,16.87
2023-06-11T04:12:59.540Z,16.78
2023-06-11T04:15:26.896Z,16.75
2023-06-11T04:17:53.556Z,16.72
2023-06-11T04:20:20.440Z,16.74
2023-06-11T04:22:47.005Z,16.78
2023-06-11T04:25:13.878Z,16.86
2023-06-11T04:27:40.898Z,16.88
2023-06-11T04:30:08.461Z,17.01
2023-06-11T04:32:38.153Z,17.40
2023-06-11T04:35:05.673Z,17.70
2023-06-11T04:37:39.204Z,17.98
2023-06-11T04:40:10.822Z,18.18
2023-06-11T04:42:41.822Z,18.33
2023-06-11T04:45:10.956Z,18.49
2023-06-11T04:47:38.586Z,18.52
2023-06-11T04:50:06.281Z,18.57
2023-06-11T04:52:39.037Z,18.59
2023-06-11T04:55:11.292Z,18.64
2023-06-11T04:57:38.446Z,18.79
2023-06-11T05:00:09.578Z,18.93
2023-06-11T05:02:39.969Z,19.01
2023-06-11T05:05:07.355Z,19.16
2023-06-11T05:07:34.322Z,19.32
2023-06-11T05:10:01.397Z,19.53
2023-06-11T05:12:28.013Z,19.73
2023-06-11T05:14:54.667Z,19.89
2023-06-11T05:17:21.319Z,20.32
2023-06-11T05:19:48.011Z,20.72
2023-06-11T05:22:14.607Z,21.07
2023-06-11T05:24:43.890Z,20.99
2023-06-11T05:27:10.658Z,20.71
2023-06-11T05:29:39.199Z,20.51
2023-06-11T05:32:06.869Z,20.43
2023-06-11T05:34:34.348Z,20.33
2023-06-11T05:37:02.186Z,20.33
2023-06-11T05:39:28.868Z,20.33
2023-06-11T05:41:55.573Z,20.34
2023-06-11T05:44:22.152Z,20.35
2023-06-11T05:46:48.801Z,20.36
2023-06-11T05:49:15.410Z,20.41
2023-06-11T05:51:41.905Z,20.46
2023-06-11T05:54:08.592Z,20.53
2023-06-11T05:56:35.186Z,20.57
2023-06-11T05:59:01.857Z,20.60
2023-06-11T06:01:29.673Z,20.65
2023-06-11T06:03:56.501Z,20.69
2023-06-11T06:06:23.085Z,20.72
2023-06-11T06:08:49.635Z,20.76
2023-06-11T06:11:16.235Z,20.81
2023-06-11T06:13:42.758Z,20.86
2023-06-11T06:16:09.489Z,20.90
2023-06-11T06:18:36.486Z,20.93
2023-06-11T06:21:03.122Z,20.98
2023-06-11T06:23:29.682Z,21.04
2023-06-11T06:25:56.176Z,21.09
2023-06-11T06:28:22.737Z,21.13
2023-06-11T06:30:50.290Z,21.18
2023-06-11T06:33:17.612Z,21.23
2023-06-11T06:35:44.365Z,21.31
2023-06-11T06:38:10.931Z,21.36
2023-06-11T06:40:37.544Z,21.43
2023-06-11T06:43:04.100Z,21.47
2023-06-11T06:45:30.654Z,21.54
2023-06-11T06:47:57.233Z,21.59
2023-06-11T06:50:23.931Z,21.64
2023-06-11T06:52:50.442Z,21.72
2023-06-11T06:55:17.138Z,21.79
2023-06-11T06:57:43.773Z,21.92
2023-06-11T07:00:11.341Z,22.03
2023-06-11T07:02:38.182Z,22.16
2023-06-11T07:05:05.110Z,22.25
2023-06-11T07:07:31.714Z,22.34
2023-06-11T07:09:58.254Z,22.45
2023-06-11T07:12:24.880Z,22.44
2023-06-11T07:14:51.535Z,22.49
2023-06-11T07:17:19.490Z,22.65
2023-06-11T07:19:46.460Z,22.77
2023-06-11T07:22:13.047Z,22.84
2023-06-11T07:24:40.614Z,22.93
2023-06-11T07:27:08.167Z,22.98
2023-06-11T07:29:34.675Z,22.97
2023-06-11T07:32:01.235Z,22.97
2023-06-11T07:34:27.855Z,22.94
2023-06-11T07:36:54.480Z,22.94
2023-06-11T07:39:21.096Z,22.94
2023-06-11T07:41:47.584Z,23.08
2023-06-11T07:44:14.156Z,23.18
2023-06-11T07:46:40.975Z,23.14
2023-06-11T07:49:07.717Z,23.17
2023-06-11T07:51:34.284Z,23.19
2023-06-11T07:54:01.470Z,23.32
2023-06-11T07:56:28.167Z,23.44
2023-06-11T07:58:55.955Z,23.39
2023-06-11T08:01:22.548Z,23.45
2023-06-11T08:03:49.216Z,23.58
2023-06-11T08:06:16.379Z,23.64
2023-06-11T08:08:43.339Z,23.76
2023-06-11T08:11:10.065Z,23.90
2023-06-11T08:13:36.589Z,23.97
2023-06-11T08:16:03.887Z,24.06
2023-06-11T08:18:30.463Z,24.16
2023-06-11T08:20:57.554Z,24.34
2023-06-11T08:23:24.205Z,24.46
2023-06-11T08:25:50.922Z,24.52
2023-06-11T08:28:17.409Z,24.56
2023-06-11T08:30:43.965Z,24.62
2023-06-11T08:33:10.719Z,24.75
2023-06-11T08:35:37.283Z,24.83
2023-06-11T08:38:04.005Z,24.92
2023-06-11T08:40:30.670Z,25.03
2023-06-11T08:42:57.250Z,25.10
2023-06-11T08:45:23.761Z,25.18
2023-06-11T08:47:53.483Z,25.23
2023-06-11T08:50:22.046Z,25.33
2023-06-11T08:52:52.959Z,25.46
2023-06-11T08:55:19.761Z,25.55
2023-06-11T08:57:47.156Z,25.60
2023-06-11T09:00:14.615Z,25.75
2023-06-11T09:02:41.538Z,25.82
2023-06-11T09:05:08.695Z,25.84
2023-06-11T09:07:37.275Z,25.82
2023-06-11T09:10:11.997Z,25.90
2023-06-11T09:12:38.979Z,26.04
2023-06-11T09:15:06.853Z,26.15
2023-06-11T09:17:42.108Z,26.21
2023-06-11T09:20:11.599Z,26.26
2023-06-11T09:22:39.600Z,26.39
2023-06-11T09:25:11.137Z,26.46
2023-06-11T09:27:39.982Z,26.49
2023-06-11T09:30:11.321Z,26.54
2023-06-11T09:32:40.257Z,26.60
2023-06-11T09:35:09.361Z,26.58
2023-06-11T09:37:43.761Z,26.61
2023-06-11T09:40:12.560Z,26.69
2023-06-11T09:42:39.483Z,26.73
2023-06-11T09:45:07.067Z,26.81
2023-06-11T09:47:34.467Z,26.88
2023-06-11T09:50:02.604Z,26.93
2023-06-11T09:52:29.715Z,26.95
2023-06-11T09:54:56.609Z,27.02
2023-06-11T09:57:23.315Z,27.10
2023-06-11T09:59:49.912Z,27.16
2023-06-11T10:02:16.554Z,27.22
2023-06-11T10:04:43.563Z,27.28
2023-06-11T10:07:11.780Z,27.24
2023-06-11T10:09:40.509Z,27.33
2023-06-11T10:12:08.184Z,27.34
2023-06-11T10:14:38.173Z,27.36
2023-06-11T10:17:09.353Z,27.49
2023-06-11T10:19:38.247Z,27.53
2023-06-11T10:22:05.056Z,27.61
2023-06-11T10:24:32.334Z,27.64
2023-06-11T10:27:06.301Z,27.58
2023-06-11T10:29:49.659Z,27.57
2023-06-11T10:32:22.151Z,27.62
2023-06-11T10:34:54.110Z,27.67
2023-06-11T10:37:47.733Z,27.68
2023-06-11T10:40:15.404Z,27.75
2023-06-11T10:42:44.717Z,27.80
2023-06-11T10:45:13.164Z,27.97
2023-06-11T10:47:45.333Z,28.07
2023-06-11T10:50:14.339Z,28.08
2023-06-11T10:52:51.850Z,28.00
2023-06-11T10:55:21.702Z,28.02
2023-06-11T10:57:55.036Z,28.17
2023-06-11T11:00:22.575Z,28.18
2023-06-11T11:02:50.760Z,28.14
2023-06-11T11:05:17.671Z,28.18
2023-06-11T11:07:47.353Z,28.16
2023-06-11T11:10:20.457Z,28.30
2023-06-11T11:12:48.620Z,28.47
2023-06-11T11:15:15.933Z,28.51
2023-06-11T11:17:46.243Z,28.47
2023-06-11T11:20:21.028Z,28.48
2023-06-11T11:22:56.753Z,28.66
2023-06-11T11:25:31.304Z,28.73
2023-06-11T11:27:58.458Z,28.88
2023-06-11T11:30:29.857Z,28.98
2023-06-11T11:32:59.883Z,28.99
2023-06-11T11:35:27.734Z,28.91
2023-06-11T11:37:55.813Z,28.91
2023-06-11T11:40:23.424Z,28.96
2023-06-11T11:42:50.926Z,28.96
2023-06-11T11:45:18.964Z,28.76
2023-06-11T11:47:51.887Z,28.75
2023-06-11T11:50:31.246Z,28.91
2023-06-11T11:53:04.565Z,28.88
2023-06-11T11:55:33.580Z,28.77
2023-06-11T11:58:06.167Z,28.79
2023-06-11T12:00:33.686Z,28.91
2023-06-11T12:03:09.193Z,28.99
2023-06-11T12:05:37.261Z,29.02
2023-06-11T12:08:04.903Z,28.95
2023-06-11T12:10:31.619Z,28.94
2023-06-11T12:13:00.552Z,28.81
2023-06-11T12:15:28.118Z,28.79
2023-06-11T12:17:55.059Z,29.05
2023-06-11T12:20:24.482Z,29.22
2023-06-11T12:22:51.651Z,29.12
2023-06-11T12:25:18.727Z,29.00
2023-06-11T12:27:45.949Z,29.11
2023-06-11T12:30:13.751Z,29.24
2023-06-11T12:32:42.010Z,29.33
2023-06-11T12:35:09.380Z,29.26
2023-06-11T12:37:37.549Z,29.16
2023-06-11T12:40:07.895Z,29.17
2023-06-11T12:42:34.420Z,29.23
2023-06-11T12:45:03.631Z,29.23
2023-06-11T12:47:31.162Z,29.32
2023-06-11T12:49:58.066Z,29.32
2023-06-11T12:52:24.800Z,29.27
2023-06-11T12:54:51.410Z,29.19
2023-06-11T12:57:17.972Z,29.26
2023-06-11T12:59:44.769Z,29.37
2023-06-11T13:02:12.326Z,29.49
2023-06-11T13:04:39.484Z,29.44
2023-06-11T13:07:06.459Z,29.54
2023-06-11T13:09:33.009Z,29.55
2023-06-11T13:11:59.855Z,29.57
2023-06-11T13:14:26.373Z,29.66
2023-06-11T13:16:53.066Z,29.70
2023-06-11T13:19:19.727Z,29.47
2023-06-11T13:21:46.366Z,29.49
2023-06-11T13:24:12.888Z,29.56
2023-06-11T13:26:39.441Z,29.57
2023-06-11T13:29:06.017Z,29.56
2023-06-11T13:31:32.748Z,29.60
2023-06-11T13:33:59.330Z,29.56
2023-06-11T13:36:26.224Z,29.57
2023-06-11T13:38:52.691Z,29.48
2023-06-11T13:41:19.303Z,29.56
2023-06-11T13:43:45.826Z,29.66
2023-06-11T13:46:12.472Z,29.68
2023-06-11T13:48:39.000Z,29.64
2023-06-11T13:51:05.540Z,29.62
2023-06-11T13:53:32.301Z,29.71
2023-06-11T13:55:58.854Z,29.73
2023-06-11T13:58:26.158Z,29.75
2023-06-11T14:00:54.668Z,29.67
2023-06-11T14:03:21.931Z,29.64
2023-06-11T14:05:48.637Z,29.66
2023-06-11T14:08:18.829Z,29.76
2023-06-11T14:10:46.303Z,29.79
2023-06-11T14:13:12.986Z,29.77
2023-06-11T14:15:39.538Z,29.73
2023-06-11T14:18:06.327Z,29.77
2023-06-11T14:20:33.021Z,29.71
2023-06-11T14:22:59.580Z,29.70
2023-06-11T14:25:26.181Z,29.66
2023-06-11T14:27:52.687Z,29.70
2023-06-11T14:30:20.360Z,29.76
2023-06-11T14:32:46.998Z,29.75
2023-06-11T14:35:13.607Z,29.75
2023-06-11T14:37:40.276Z,29.80
2023-06-11T14:40:07.548Z,29.68
2023-06-11T14:42:34.106Z,29.68
2023-06-11T14:45:04.085Z,29.66
2023-06-11T14:47:31.574Z,29.69
2023-06-11T14:49:58.168Z,29.73
2023-06-11T14:52:24.708Z,29.71
2023-06-11T14:54:51.262Z,29.76
2023-06-11T14:57:20.142Z,29.77
2023-06-11T14:59:46.996Z,29.85
2023-06-11T15:02:16.893Z,29.80
2023-06-11T15:04:44.993Z,29.72
2023-06-11T15:07:29.367Z,29.73
2023-06-11T15:10:01.065Z,29.80
2023-06-11T15:12:27.546Z,29.84
2023-06-11T15:14:54.085Z,29.84
2023-06-11T15:17:21.812Z,29.83
2023-06-11T15:19:48.374Z,29.85
2023-06-11T15:22:15.231Z,29.84
2023-06-11T15:24:41.751Z,29.81
2023-06-11T15:27:08.586Z,29.83
2023-06-11T15:29:35.136Z,29.82
2023-06-11T15:32:01.920Z,29.81
2023-06-11T15:34:28.538Z,29.81
2023-06-11T15:36:55.061Z,29.84
2023-06-11T15:39:21.809Z,29.85
2023-06-11T15:41:48.359Z,29.83
2023-06-11T15:44:14.941Z,29.79
2023-06-11T15:46:41.561Z,29.78
2023-06-11T15:49:08.177Z,29.76
2023-06-11T15:51:34.714Z,29.79
2023-06-11T15:54:03.685Z,29.79
2023-06-11T15:56:30.800Z,29.72
2023-06-11T15:58:57.319Z,29.71
2023-06-11T16:01:24.208Z,29.71
2023-06-11T16:03:50.899Z,29.71
2023-06-11T16:06:19.566Z,29.73
2023-06-11T16:08:46.251Z,29.68
2023-06-11T16:11:12.850Z,29.63
2023-06-11T16:13:39.330Z,29.65
2023-06-11T16:16:06.074Z,29.68
2023-06-11T16:18:32.612Z,29.66
2023-06-11T16:20:59.229Z,29.63
2023-06-11T16:23:26.235Z,29.61
2023-06-11T16:25:52.919Z,29.62
2023-06-11T16:28:19.480Z,29.61
2023-06-11T16:30:46.041Z,29.60
2023-06-11T16:33:12.690Z,29.62
2023-06-11T16:35:39.302Z,29.68
2023-06-11T16:38:05.891Z,29.66
2023-06-11T16:40:32.532Z,29.64
2023-06-11T16:42:59.137Z,29.63
2023-06-11T16:45:27.728Z,29.60
2023-06-11T16:47:54.576Z,29.55
2023-06-11T16:50:21.418Z,29.51
2023-06-11T16:52:49.874Z,29.49
2023-06-11T16:55:18.883Z,29.51
2023-06-11T16:57:45.617Z,29.51
2023-06-11T17:00:13.128Z,29.48
2023-06-11T17:02:39.987Z,29.45
2023-06-11T17:05:06.788Z,29.46
2023-06-11T17:07:35.119Z,29.51
2023-06-11T17:10:04.128Z,29.50
2023-06-11T17:12:30.883Z,29.49
2023-06-11T17:14:57.386Z,29.47
2023-06-11T17:17:23.934Z,29.44
2023-06-11T17:19:50.972Z,29.42
2023-06-11T17:22:17.525Z,29.42
2023-06-11T17:24:44.061Z,29.38
2023-06-11T17:27:10.583Z,29.32
2023-06-11T17:29:37.168Z,29.35
2023-06-11T17:32:04.053Z,29.32
2023-06-11T17:34:30.592Z,29.30
2023-06-11T17:36:57.311Z,29.27
2023-06-11T17:39:23.851Z,29.23
2023-06-11T17:41:50.658Z,29.22
2023-06-11T17:44:18.775Z,29.21
2023-06-11T17:46:46.470Z,29.15
2023-06-11T17:49:13.442Z,29.09
2023-06-11T17:51:40.444Z,29.01
2023-06-11T17:54:06.923Z,28.95
2023-06-11T17:56:33.500Z,28.90
2023-06-11T17:59:01.128Z,28.85
2023-06-11T18:01:27.711Z,28.82
2023-06-11T18:03:54.315Z,28.80
2023-06-11T18:06:21.216Z,28.78
2023-06-11T18:08:47.755Z,28.73
2023-06-11T18:11:14.374Z,28.69
2023-06-11T18:13:40.940Z,28.68
2023-06-11T18:16:07.563Z,28.65
2023-06-11T18:18:34.269Z,28.61
2023-06-11T18:21:00.867Z,28.60
2023-06-11T18:23:27.367Z,28.55
2023-06-11T18:25:54.040Z,28.51
2023-06-11T18:28:21.231Z,28.45
2023-06-11T18:31:22.749Z,28.43
2023-06-11T18:33:49.554Z,28.33
2023-06-11T18:39:37.610Z,28.29
2023-06-11T18:42:14.153Z,28.23
2023-06-11T18:44:40.884Z,28.19
2023-06-11T18:56:17.108Z,27.95
2023-06-11T18:58:51.924Z,27.89
2023-06-11T19:01:21.237Z,27.83
2023-06-11T19:03:48.172Z,27.78
2023-06-11T19:06:15.028Z,27.73
2023-06-11T19:08:47.780Z,27.68
2023-06-11T19:11:14.409Z,27.64
2023-06-11T19:13:47.893Z,27.59
2023-06-11T19:16:15.581Z,27.55
2023-06-11T19:18:42.453Z,27.52
2023-06-11T19:21:11.573Z,27.45
2023-06-11T19:23:38.353Z,27.37
2023-06-11T19:26:05.179Z,27.34
2023-06-11T19:28:31.752Z,27.25
2023-06-11T19:30:58.429Z,27.20
2023-06-11T19:33:25.288Z,27.14
2023-06-11T19:35:51.972Z,27.10
2023-06-11T19:40:53.973Z,26.98
2023-06-11T19:43:20.558Z,26.92
2023-06-11T19:45:47.100Z,26.86
2023-06-11T19:48:13.903Z,26.77
2023-06-11T19:50:40.575Z,26.68
2023-06-11T19:53:07.152Z,26.62
2023-06-11T19:55:35.019Z,26.54
2023-06-11T19:58:03.247Z,26.48
2023-06-11T20:00:29.810Z,26.42
2023-06-11T20:02:56.392Z,26.36
2023-06-11T20:05:22.986Z,26.32
2023-06-11T20:07:49.600Z,26.25
2023-06-11T20:10:16.203Z,26.20
2023-06-11T20:12:42.847Z,26.16
2023-06-11T20:15:10.000Z,26.07
2023-06-11T20:17:37.620Z,26.00
2023-06-11T20:20:04.520Z,25.95
2023-06-11T20:22:32.468Z,25.92
2023-06-11T20:24:59.307Z,25.87
2023-06-11T20:27:25.967Z,25.82
2023-06-11T20:29:52.828Z,25.78
2023-06-11T20:32:23.948Z,25.72
2023-06-11T20:34:50.909Z,25.67
2023-06-11T20:37:17.548Z,25.61
2023-06-11T20:39:44.274Z,25.55
2023-06-11T20:42:11.139Z,25.51
2023-06-11T20:47:39.476Z,25.44
2023-06-11T20:50:07.430Z,25.39
2023-06-11T20:52:35.429Z,25.34
2023-06-11T20:55:02.190Z,25.31
2023-06-11T20:57:29.076Z,25.26
2023-06-11T20:59:55.787Z,25.25
2023-06-11T21:02:22.326Z,25.23
2023-06-11T21:04:49.161Z,25.15
2023-06-11T21:07:16.649Z,25.13
2023-06-11T21:09:43.248Z,25.07
2023-06-11T21:12:13.310Z,25.02
2023-06-11T21:14:39.814Z,24.95
2023-06-11T21:17:06.452Z,24.93
2023-06-11T21:19:33.047Z,24.89
2023-06-11T21:21:59.575Z,24.84
2023-06-11T21:24:26.137Z,24.80
2023-06-11T21:26:53.360Z,24.73
2023-06-11T21:29:20.098Z,24.68
2023-06-11T21:31:46.759Z,24.64
2023-06-11T21:34:13.437Z,24.62
2023-06-11T21:36:39.921Z,24.56
2023-06-11T21:39:06.678Z,24.54
2023-06-11T21:41:33.270Z,24.47
2023-06-11T21:43:59.997Z,24.41
2023-06-11T21:46:26.647Z,24.38
2023-06-11T21:48:53.375Z,24.33
2023-06-11T21:51:21.259Z,24.29
2023-06-11T21:53:47.846Z,24.26
2023-06-11T21:56:14.352Z,24.23
2023-06-11T21:58:41.142Z,24.21
2023-06-11T22:01:07.746Z,24.16
2023-06-11T22:03:34.465Z,24.13
2023-06-11T22:06:04.042Z,24.11
2023-06-11T22:08:31.458Z,24.08
2023-06-11T22:10:57.991Z,24.04
2023-06-11T22:13:24.658Z,23.96
2023-06-11T22:15:51.281Z,23.95
2023-06-11T22:18:17.949Z,23.93
2023-06-11T22:20:44.479Z,23.88
2023-06-11T22:23:11.921Z,23.85
2023-06-11T22:25:38.554Z,23.84
2023-06-11T22:28:05.314Z,23.78
2023-06-11T22:30:38.099Z,23.76
2023-06-11T22:33:14.425Z,23.71
2023-06-11T22:35:40.992Z,23.66
2023-06-11T22:38:07.546Z,23.68
2023-06-11T22:40:34.053Z,23.65
2023-06-11T22:43:00.598Z,23.63
2023-06-11T22:45:27.160Z,23.61
2023-06-11T22:47:54.780Z,23.55
2023-06-11T22:50:21.455Z,23.53
2023-06-11T22:52:50.647Z,23.51
2023-06-11T22:55:18.470Z,23.46
2023-06-11T22:57:45.178Z,23.42
2023-06-11T23:00:12.562Z,23.37
2023-06-11T23:02:39.449Z,23.31
2023-06-11T23:05:08.032Z,23.27
2023-06-11T23:07:38.613Z,23.23
2023-06-11T23:10:05.894Z,23.20
2023-06-11T23:12:40.821Z,23.14
2023-06-11T23:15:07.977Z,23.12
2023-06-11T23:17:34.716Z,23.12
2023-06-11T23:20:02.625Z,23.06
2023-06-11T23:22:29.909Z,23.02
2023-06-11T23:24:56.423Z,22.98
2023-06-11T23:27:22.945Z,22.95
2023-06-11T23:29:49.765Z,22.90
2023-06-11T23:32:16.477Z,22.87
2023-06-11T23:34:43.396Z,22.83
2023-06-11T23:37:10.676Z,22.78
2023-06-11T23:39:37.273Z,22.74
2023-06-11T23:42:04.048Z,22.72
2023-06-11T23:44:30.659Z,22.70
2023-06-11T23:46:57.255Z,22.63
2023-06-11T23:49:23.778Z,22.59
2023-06-11T23:51:50.624Z,22.60
2023-06-11T23:54:17.221Z,22.56
2023-06-11T23:56:43.728Z,22.47
2023-06-11T23:59:10.829Z,22.43
